createdAt,value
2018-06-02T00:01:16.800Z,18.55
2018-06-02T00:03:45.023Z,18.55
2018-06-02T00:06:13.229Z,18.59
2018-06-02T00:08:41.435Z,18.50
2018-06-02T00:11:09.647Z,18.52
2018-06-02T00:13:37.826Z,18.56
2018-06-02T00:16:06.011Z,18.60
2018-06-02T00:18:47.138Z,18.61
2018-06-02T00:21:17.405Z,18.66
2018-06-02T00:23:45.625Z,18.62
2018-06-02T00:26:13.824Z,18.59
2018-06-02T00:28:42.009Z,18.49
2018-06-02T00:31:10.186Z,18.46
2018-06-02T00:33:38.456Z,18.46
2018-06-02T00:36:06.610Z,18.45
2018-06-02T00:38:34.764Z,18.38
2018-06-02T00:41:02.951Z,18.33
2018-06-02T00:43:31.128Z,18.24
2018-06-02T00:45:59.329Z,18.25
2018-06-02T00:48:27.508Z,18.23
2018-06-02T00:50:55.769Z,18.18
2018-06-02T00:53:23.936Z,18.15
2018-06-02T00:55:52.143Z,18.18
2018-06-02T00:58:20.307Z,18.18
2018-06-02T01:00:48.523Z,18.17
2018-06-02T01:03:16.691Z,18.16
2018-06-02T01:05:44.911Z,18.18
2018-06-02T01:08:13.077Z,18.19
2018-06-02T01:10:41.301Z,18.27
2018-06-02T01:13:09.501Z,18.25
2018-06-02T01:15:37.665Z,18.20
2018-06-02T01:18:05.874Z,18.20
2018-06-02T01:20:34.050Z,18.17
2018-06-02T01:23:02.241Z,18.20
2018-06-02T01:25:30.440Z,18.20
2018-06-02T01:27:58.648Z,18.21
2018-06-02T01:30:26.808Z,18.31
2018-06-02T01:32:54.973Z,18.19
2018-06-02T01:35:23.199Z,18.13
2018-06-02T01:37:51.401Z,18.13
2018-06-02T01:40:19.580Z,18.16
2018-06-02T01:42:47.773Z,18.12
2018-06-02T01:45:16.792Z,18.09
2018-06-02T01:47:45.000Z,18.13
2018-06-02T01:50:13.169Z,18.17
2018-06-02T01:52:41.391Z,18.18
2018-06-02T01:55:09.569Z,18.21
2018-06-02T01:57:37.776Z,18.24
2018-06-02T02:00:05.982Z,18.25
2018-06-02T02:02:34.195Z,18.24
2018-06-02T02:05:02.363Z,18.22
2018-06-02T02:07:30.518Z,18.26
2018-06-02T02:09:58.733Z,18.35
2018-06-02T02:12:26.914Z,18.35
2018-06-02T02:14:55.088Z,18.31
2018-06-02T02:17:23.340Z,18.26
2018-06-02T02:19:51.494Z,18.33
2018-06-02T02:22:19.682Z,18.40
2018-06-02T02:24:47.854Z,18.30
2018-06-02T02:27:16.045Z,18.27
2018-06-02T02:29:44.225Z,18.30
2018-06-02T02:32:12.397Z,18.29
2018-06-02T02:34:40.594Z,18.37
2018-06-02T02:37:08.806Z,18.34
2018-06-02T02:39:36.995Z,18.27
2018-06-02T02:42:05.614Z,18.27
2018-06-02T02:44:33.830Z,18.25
2018-06-02T02:47:02.029Z,18.23
2018-06-02T02:49:30.226Z,18.29
2018-06-02T02:51:58.423Z,18.29
2018-06-02T02:54:26.649Z,18.33
2018-06-02T02:56:54.843Z,18.34
2018-06-02T02:59:23.005Z,18.35
2018-06-02T03:01:51.924Z,18.32
2018-06-02T03:04:20.112Z,18.35
2018-06-02T03:06:48.309Z,18.34
2018-06-02T03:09:16.501Z,18.35
2018-06-02T03:11:45.132Z,18.31
2018-06-02T03:14:13.355Z,18.32
2018-06-02T03:16:41.573Z,18.30
2018-06-02T03:19:09.729Z,18.32
2018-06-02T03:21:38.415Z,18.37
2018-06-02T03:24:06.621Z,18.41
2018-06-02T03:26:34.844Z,18.34
2018-06-02T03:29:03.035Z,18.36
2018-06-02T03:31:31.201Z,18.36
2018-06-02T03:33:59.486Z,18.40
2018-06-02T03:36:27.662Z,18.39
2018-06-02T03:38:55.871Z,18.44
2018-06-02T03:41:24.039Z,18.45
2018-06-02T03:43:52.239Z,18.40
2018-06-02T03:46:20.426Z,18.44
2018-06-02T03:48:48.634Z,18.43
2018-06-02T03:51:16.847Z,18.44
2018-06-02T03:53:45.002Z,18.43
2018-06-02T03:56:13.209Z,18.43
2018-06-02T03:58:41.371Z,18.44
2018-06-02T04:01:09.545Z,18.43
2018-06-02T04:03:37.765Z,18.40
2018-06-02T04:06:05.926Z,18.37
2018-06-02T04:08:34.134Z,18.42
2018-06-02T04:11:02.319Z,18.45
2018-06-02T04:13:30.518Z,18.45
2018-06-02T04:15:58.746Z,18.45
2018-06-02T04:18:26.921Z,18.50
2018-06-02T04:20:55.129Z,18.54
2018-06-02T04:23:23.305Z,18.62
2018-06-02T04:25:51.503Z,18.60
2018-06-02T04:28:19.668Z,18.53
2018-06-02T04:30:47.859Z,18.53
2018-06-02T04:33:16.088Z,18.53
2018-06-02T04:35:44.280Z,18.61
2018-06-02T04:38:12.459Z,18.54
2018-06-02T04:40:40.740Z,18.54
2018-06-02T04:43:08.931Z,18.57
2018-06-02T04:45:37.082Z,18.73
2018-06-02T04:48:05.279Z,18.60
2018-06-02T04:50:33.495Z,18.59
2018-06-02T04:53:01.653Z,18.66
2018-06-02T04:55:30.131Z,18.74
2018-06-02T04:57:58.302Z,18.75
2018-06-02T05:00:26.571Z,18.82
2018-06-02T05:02:54.758Z,18.84
2018-06-02T05:05:22.990Z,18.87
2018-06-02T05:07:51.217Z,18.79
2018-06-02T05:10:19.429Z,18.77
2018-06-02T05:12:47.630Z,18.73
2018-06-02T05:15:15.803Z,18.73
2018-06-02T05:17:44.022Z,18.67
2018-06-02T05:20:12.226Z,18.71
2018-06-02T05:22:40.439Z,18.74
2018-06-02T05:25:08.666Z,18.82
2018-06-02T05:27:36.841Z,18.73
2018-06-02T05:30:05.041Z,18.73
2018-06-02T05:32:33.212Z,18.72
2018-06-02T05:35:01.909Z,18.70
2018-06-02T05:37:30.177Z,18.68
2018-06-02T05:39:59.707Z,18.66
2018-06-02T05:55:28.024Z,18.74
2018-06-02T05:57:56.478Z,18.78
2018-06-02T06:00:25.275Z,18.84
2018-06-02T06:02:53.841Z,18.84
2018-06-02T06:05:22.151Z,18.85
2018-06-02T06:07:50.372Z,18.88
2018-06-02T06:10:18.544Z,18.92
2018-06-02T06:12:46.728Z,18.97
2018-06-02T06:15:14.951Z,18.94
2018-06-02T06:17:43.158Z,18.92
2018-06-02T06:20:11.383Z,19.05
2018-06-02T06:22:39.552Z,19.03
2018-06-02T06:25:07.749Z,18.98
2018-06-02T06:27:35.927Z,18.97
2018-06-02T06:30:04.147Z,18.91
2018-06-02T06:32:32.333Z,18.90
2018-06-02T06:35:00.500Z,18.89
2018-06-02T06:37:28.698Z,18.86
2018-06-02T06:39:56.873Z,18.80
2018-06-02T06:42:25.074Z,18.84
2018-06-02T06:44:53.223Z,18.81
2018-06-02T06:47:21.391Z,18.85
2018-06-02T06:49:49.604Z,18.88
2018-06-02T06:52:17.780Z,18.91
2018-06-02T06:54:45.975Z,18.93
2018-06-02T06:57:14.165Z,18.89
2018-06-02T06:59:42.338Z,18.93
2018-06-02T07:02:10.539Z,18.99
2018-06-02T07:04:38.742Z,19.09
2018-06-02T07:07:06.948Z,19.11
2018-06-02T07:09:35.109Z,19.11
2018-06-02T07:12:03.353Z,19.12
2018-06-02T07:14:31.489Z,19.25
2018-06-02T07:16:59.762Z,19.20
2018-06-02T07:19:27.932Z,19.21
2018-06-02T07:21:56.134Z,19.22
2018-06-02T07:24:24.343Z,19.22
2018-06-02T07:26:52.534Z,19.20
2018-06-02T07:29:20.788Z,19.30
2018-06-02T07:31:48.963Z,19.39
2018-06-02T07:34:17.131Z,19.40
2018-06-02T07:36:45.318Z,19.33
2018-06-02T07:39:13.483Z,19.20
2018-06-02T07:41:41.673Z,19.19
2018-06-02T07:44:09.827Z,19.16
2018-06-02T07:46:38.056Z,19.21
2018-06-02T07:49:06.232Z,19.12
2018-06-02T07:51:34.406Z,19.08
2018-06-02T07:54:02.605Z,19.29
2018-06-02T07:56:30.773Z,19.28
2018-06-02T07:58:59.045Z,19.34
2018-06-02T08:01:27.220Z,19.24
2018-06-02T08:03:55.400Z,19.27
2018-06-02T08:06:23.597Z,19.37
2018-06-02T08:08:51.774Z,19.46
2018-06-02T08:11:19.970Z,19.53
2018-06-02T08:13:48.179Z,19.49
2018-06-02T08:16:16.349Z,19.55
2018-06-02T08:18:44.536Z,19.56
2018-06-02T08:21:12.718Z,19.57
2018-06-02T08:23:40.936Z,19.59
2018-06-02T08:26:09.097Z,19.80
2018-06-02T08:28:37.281Z,19.87
2018-06-02T08:31:05.474Z,19.84
2018-06-02T08:33:33.724Z,19.83
2018-06-02T08:36:01.906Z,19.74
2018-06-02T08:38:30.074Z,19.69
2018-06-02T08:43:35.930Z,19.87
2018-06-02T08:46:04.122Z,19.91
2018-06-02T08:48:32.291Z,19.78
2018-06-02T08:51:00.501Z,19.66
2018-06-02T08:53:28.673Z,19.59
2018-06-02T08:55:56.870Z,19.45
2018-06-02T08:58:25.037Z,19.50
2018-06-02T09:00:53.257Z,19.45
2018-06-02T09:03:21.523Z,19.64
2018-06-02T09:05:49.694Z,19.94
2018-06-02T09:08:17.905Z,20.14
2018-06-02T09:10:46.069Z,20.28
2018-06-02T09:13:14.253Z,20.18
2018-06-02T09:15:42.448Z,20.23
2018-06-02T09:18:10.598Z,20.17
2018-06-02T09:20:38.843Z,20.41
2018-06-02T09:23:06.999Z,20.44
2018-06-02T09:25:35.172Z,20.34
2018-06-02T09:28:03.809Z,20.52
2018-06-02T09:30:31.981Z,20.78
2018-06-02T09:33:00.150Z,20.97
2018-06-02T09:35:28.351Z,21.16
2018-06-02T09:37:56.574Z,21.30
2018-06-02T09:40:24.734Z,21.22
2018-06-02T09:42:52.920Z,21.32
2018-06-02T09:45:21.084Z,21.40
2018-06-02T09:47:49.280Z,21.53
2018-06-02T09:50:17.490Z,21.76
2018-06-02T09:52:45.681Z,21.78
2018-06-02T09:55:13.897Z,21.73
2018-06-02T09:57:42.062Z,21.62
2018-06-02T10:00:10.266Z,21.60
2018-06-02T10:02:38.470Z,21.52
2018-06-02T10:05:06.696Z,21.38
2018-06-02T10:07:34.886Z,21.25
2018-06-02T10:10:03.249Z,21.30
2018-06-02T10:12:31.463Z,21.33
2018-06-02T10:14:59.633Z,21.37
2018-06-02T10:17:27.823Z,21.44
2018-06-02T10:19:55.990Z,21.40
2018-06-02T10:22:24.201Z,21.41
2018-06-02T10:24:52.381Z,21.42
2018-06-02T10:27:20.531Z,21.68
2018-06-02T10:29:48.682Z,21.93
2018-06-02T10:32:16.980Z,21.88
2018-06-02T10:34:45.119Z,21.86
2018-06-02T10:37:13.321Z,21.91
2018-06-02T10:39:41.488Z,22.01
2018-06-02T10:42:10.492Z,21.95
2018-06-02T10:44:38.718Z,22.02
2018-06-02T10:47:06.822Z,21.98
2018-06-02T10:49:35.014Z,22.19
2018-06-02T10:52:03.191Z,22.17
2018-06-02T10:54:31.421Z,22.15
2018-06-02T10:56:59.617Z,22.17
2018-06-02T10:59:27.800Z,22.13
2018-06-02T11:01:55.997Z,21.94
2018-06-02T11:04:24.196Z,22.01
2018-06-02T11:06:52.352Z,22.02
2018-06-02T11:09:21.476Z,22.08
2018-06-02T11:11:49.644Z,22.12
2018-06-02T11:14:17.825Z,22.20
2018-06-02T11:16:46.047Z,22.08
2018-06-02T11:19:14.210Z,22.14
2018-06-02T11:21:42.409Z,22.14
2018-06-02T11:24:10.550Z,22.08
2018-06-02T11:26:38.744Z,22.17
2018-06-02T11:29:06.941Z,22.08
2018-06-02T11:31:35.088Z,22.09
2018-06-02T11:34:03.273Z,22.12
2018-06-02T11:36:31.453Z,22.15
2018-06-02T11:38:59.629Z,22.24
2018-06-02T11:41:27.806Z,22.28
2018-06-02T11:43:56.006Z,22.56
2018-06-02T11:46:24.222Z,22.76
2018-06-02T11:48:52.398Z,23.16
2018-06-02T11:51:20.576Z,23.34
2018-06-02T11:53:48.746Z,23.29
2018-06-02T11:56:17.538Z,23.69
2018-06-02T11:58:45.769Z,24.20
2018-06-02T12:01:13.966Z,24.87
2018-06-02T12:03:42.149Z,25.31
2018-06-02T12:06:10.358Z,25.57
2018-06-02T12:08:38.510Z,25.26
2018-06-02T12:11:06.739Z,24.88
2018-06-02T12:13:34.939Z,24.73
2018-06-02T12:16:03.140Z,25.07
2018-06-02T12:18:31.314Z,25.01
2018-06-02T12:20:59.531Z,24.88
2018-06-02T12:23:27.771Z,24.47
2018-06-02T12:25:55.986Z,24.08
2018-06-02T12:28:24.240Z,23.96
2018-06-02T12:30:52.406Z,23.87
2018-06-02T12:33:20.613Z,23.64
2018-06-02T12:35:48.783Z,23.70
2018-06-02T12:38:17.275Z,23.97
2018-06-02T12:40:45.440Z,24.05
2018-06-02T12:43:13.623Z,24.22
2018-06-02T12:45:41.789Z,24.26
2018-06-02T12:48:09.994Z,24.27
2018-06-02T12:50:38.204Z,24.16
2018-06-02T12:53:06.361Z,24.00
2018-06-02T12:55:34.635Z,23.97
2018-06-02T12:58:03.071Z,23.74
2018-06-02T13:00:31.356Z,23.84
2018-06-02T13:02:59.538Z,23.73
2018-06-02T13:05:27.753Z,23.82
2018-06-02T13:07:55.939Z,24.14
2018-06-02T13:10:24.102Z,24.29
2018-06-02T13:12:52.292Z,24.37
2018-06-02T13:15:20.495Z,24.30
2018-06-02T13:17:48.765Z,24.21
2018-06-02T13:20:16.969Z,24.08
2018-06-02T13:22:45.165Z,24.03
2018-06-02T13:25:14.046Z,24.07
2018-06-02T13:27:42.307Z,24.01
2018-06-02T13:30:10.538Z,23.85
2018-06-02T13:32:38.711Z,23.88
2018-06-02T13:35:06.919Z,23.96
2018-06-02T13:37:35.066Z,23.96
2018-06-02T13:40:03.254Z,24.29
2018-06-02T13:42:31.447Z,24.45
2018-06-02T13:44:59.625Z,24.61
2018-06-02T13:47:27.809Z,24.89
2018-06-02T13:49:56.020Z,24.67
2018-06-02T13:52:24.188Z,24.34
2018-06-02T13:54:52.363Z,24.28
2018-06-02T13:57:20.537Z,24.30
2018-06-02T13:59:48.922Z,24.40
2018-06-02T14:02:17.774Z,24.41
2018-06-02T14:04:45.976Z,24.28
2018-06-02T14:07:14.144Z,24.21
2018-06-02T14:09:42.777Z,24.03
2018-06-02T14:12:11.020Z,24.20
2018-06-02T14:14:39.251Z,24.35
2018-06-02T14:17:07.421Z,24.93
2018-06-02T14:19:35.632Z,25.75
2018-06-02T14:22:03.784Z,26.04
2018-06-02T14:24:31.996Z,26.12
2018-06-02T14:27:00.185Z,26.07
2018-06-02T14:29:28.387Z,25.89
2018-06-02T14:31:56.576Z,25.46
2018-06-02T14:34:24.809Z,25.22
2018-06-02T14:36:53.020Z,25.38
2018-06-02T14:39:21.229Z,24.85
2018-06-02T14:41:49.408Z,24.93
2018-06-02T14:44:17.600Z,24.67
2018-06-02T14:46:45.768Z,24.55
2018-06-02T14:49:13.977Z,24.74
2018-06-02T14:51:42.173Z,24.71
2018-06-02T14:54:10.375Z,24.64
2018-06-02T14:56:38.575Z,24.25
2018-06-02T14:59:06.765Z,24.13
2018-06-02T15:01:34.991Z,24.27
2018-06-02T15:04:03.145Z,24.41
2018-06-02T15:06:31.328Z,24.28
2018-06-02T15:08:59.497Z,24.21
2018-06-02T15:11:27.727Z,24.05
2018-06-02T15:13:55.968Z,24.05
2018-06-02T15:16:24.161Z,24.16
2018-06-02T15:18:52.402Z,24.35
2018-06-02T15:21:20.547Z,24.41
2018-06-02T15:23:48.736Z,24.74
2018-06-02T15:26:16.896Z,24.64
2018-06-02T15:28:45.105Z,24.42
2018-06-02T15:31:13.309Z,24.23
2018-06-02T15:33:41.461Z,24.05
2018-06-02T15:36:09.703Z,24.09
2018-06-02T15:38:37.859Z,24.04
2018-06-02T15:41:06.026Z,24.34
2018-06-02T15:43:34.248Z,24.27
2018-06-02T15:46:02.415Z,24.35
2018-06-02T15:48:30.585Z,24.54
2018-06-02T15:50:58.731Z,24.61
2018-06-02T15:53:26.933Z,24.73
2018-06-02T15:55:55.100Z,24.90
2018-06-02T15:58:23.276Z,24.32
2018-06-02T16:00:51.451Z,24.09
2018-06-02T16:03:19.636Z,24.26
2018-06-02T16:05:48.037Z,24.24
2018-06-02T16:08:16.257Z,24.08
2018-06-02T16:10:45.425Z,23.96
2018-06-02T16:13:13.772Z,23.70
2018-06-02T16:15:42.079Z,23.61
2018-06-02T16:18:10.839Z,23.61
2018-06-02T16:20:39.477Z,23.64
2018-06-02T16:23:07.831Z,23.55
2018-06-02T16:25:36.510Z,23.55
2018-06-02T16:28:04.934Z,23.64
2018-06-02T16:30:33.428Z,23.75
2018-06-02T16:33:01.600Z,23.64
2018-06-02T16:35:30.083Z,23.50
2018-06-02T16:37:58.513Z,23.70
2018-06-02T16:40:26.876Z,23.78
2018-06-02T16:42:55.167Z,23.60
2018-06-02T16:45:23.507Z,23.54
2018-06-02T16:47:51.822Z,23.40
2018-06-02T16:50:20.275Z,23.22
2018-06-02T16:52:49.295Z,23.14
2018-06-02T16:55:17.670Z,23.13
2018-06-02T16:57:46.100Z,23.00
2018-06-02T17:00:14.586Z,22.85
2018-06-02T17:02:42.876Z,22.78
2018-06-02T17:05:11.382Z,22.84
2018-06-02T17:07:39.535Z,22.79
2018-06-02T17:10:07.693Z,22.78
2018-06-02T17:12:36.393Z,22.85
2018-06-02T17:15:04.569Z,22.89
2018-06-02T17:17:32.761Z,22.83
2018-06-02T17:20:00.960Z,22.87
2018-06-02T17:22:29.115Z,22.92
2018-06-02T17:24:57.286Z,22.71
2018-06-02T17:27:25.453Z,22.72
2018-06-02T17:29:53.626Z,22.73
2018-06-02T17:32:21.777Z,22.68
2018-06-02T17:34:49.963Z,22.81
2018-06-02T17:37:18.116Z,22.80
2018-06-02T17:39:46.305Z,22.74
2018-06-02T17:42:14.454Z,22.74
2018-06-02T17:44:42.634Z,22.71
2018-06-02T17:47:10.829Z,22.59
2018-06-02T17:49:39.000Z,22.36
2018-06-02T17:52:07.199Z,22.33
2018-06-02T17:54:35.947Z,22.31
2018-06-02T17:57:04.125Z,22.34
2018-06-02T17:59:32.307Z,22.38
2018-06-02T18:02:00.472Z,22.52
2018-06-02T18:04:28.668Z,22.40
2018-06-02T18:06:56.825Z,22.38
2018-06-02T18:09:25.023Z,22.31
2018-06-02T18:11:53.203Z,22.33
2018-06-02T18:14:21.396Z,22.36
2018-06-02T18:16:49.565Z,22.41
2018-06-02T18:19:17.753Z,22.32
2018-06-02T18:21:45.991Z,22.35
2018-06-02T18:24:14.269Z,22.22
2018-06-02T18:26:42.487Z,22.16
2018-06-02T18:29:10.647Z,22.13
2018-06-02T18:31:38.858Z,22.09
2018-06-02T18:34:07.053Z,22.06
2018-06-02T18:36:35.270Z,22.09
2018-06-02T18:39:03.458Z,22.09
2018-06-02T18:41:31.655Z,22.03
2018-06-02T18:43:59.812Z,21.99
2018-06-02T18:46:27.970Z,21.97
2018-06-02T18:48:56.155Z,21.78
2018-06-02T18:51:24.299Z,21.76
2018-06-02T18:53:52.503Z,21.84
2018-06-02T18:56:20.680Z,21.87
2018-06-02T18:58:48.865Z,21.88
2018-06-02T19:01:17.087Z,21.90
2018-06-02T19:03:45.250Z,21.85
2018-06-02T19:06:13.432Z,21.85
2018-06-02T19:08:41.609Z,21.72
2018-06-02T19:11:09.799Z,21.70
2018-06-02T19:13:37.966Z,21.67
2018-06-02T19:16:06.186Z,21.64
2018-06-02T19:18:34.375Z,21.62
2018-06-02T19:21:02.545Z,21.67
2018-06-02T19:23:30.738Z,21.62
2018-06-02T19:25:58.903Z,21.60
2018-06-02T19:28:27.102Z,21.56
2018-06-02T19:30:55.288Z,21.58
2018-06-02T19:33:23.590Z,21.56
2018-06-02T19:35:51.753Z,21.54
2018-06-02T19:38:19.935Z,21.55
2018-06-02T19:40:48.122Z,21.47
2018-06-02T19:43:16.385Z,21.44
2018-06-02T19:45:44.555Z,21.41
2018-06-02T19:48:12.798Z,21.43
2018-06-02T19:50:40.958Z,21.41
2018-06-02T19:53:09.143Z,21.35
2018-06-02T19:55:37.334Z,21.38
2018-06-02T19:58:05.504Z,21.33
2018-06-02T20:00:33.944Z,21.31
2018-06-02T20:03:02.143Z,21.29
2018-06-02T20:05:30.359Z,21.32
2018-06-02T20:07:58.565Z,21.31
2018-06-02T20:10:26.766Z,21.28
2018-06-02T20:12:54.944Z,21.25
2018-06-02T20:15:23.104Z,21.26
2018-06-02T20:17:51.385Z,21.24
2018-06-02T20:20:19.587Z,21.19
2018-06-02T20:22:47.781Z,21.19
2018-06-02T20:25:15.963Z,21.21
2018-06-02T20:27:44.152Z,21.18
2018-06-02T20:30:12.352Z,21.16
2018-06-02T20:32:40.567Z,21.17
2018-06-02T20:35:08.739Z,21.14
2018-06-02T20:37:36.900Z,21.07
2018-06-02T20:40:05.111Z,21.04
2018-06-02T20:42:33.311Z,21.03
2018-06-02T20:45:01.506Z,21.03
2018-06-02T20:47:29.692Z,20.99
2018-06-02T20:49:57.899Z,20.99
2018-06-02T20:52:26.097Z,21.02
2018-06-02T20:54:54.282Z,21.14
2018-06-02T20:57:22.492Z,21.07
2018-06-02T20:59:50.701Z,21.02
2018-06-02T21:02:18.883Z,20.96
2018-06-02T21:04:47.079Z,20.96
2018-06-02T21:07:15.269Z,20.95
2018-06-02T21:09:43.440Z,20.94
2018-06-02T21:12:11.634Z,20.95
2018-06-02T21:14:39.809Z,20.99
2018-06-02T21:17:08.010Z,20.98
2018-06-02T21:19:36.180Z,20.95
2018-06-02T21:22:04.336Z,21.02
2018-06-02T21:24:32.567Z,20.97
2018-06-02T21:27:00.752Z,20.95
2018-06-02T21:29:28.921Z,20.95
2018-06-02T21:31:57.124Z,20.97
2018-06-02T21:34:25.302Z,20.94
2018-06-02T21:36:53.476Z,20.94
2018-06-02T21:39:21.681Z,21.00
2018-06-02T21:41:49.856Z,21.00
2018-06-02T21:44:18.013Z,20.91
2018-06-02T21:46:46.245Z,20.86
2018-06-02T21:49:14.432Z,20.82
2018-06-02T21:51:42.632Z,20.83
2018-06-02T21:54:10.811Z,20.88
2018-06-02T21:56:39.033Z,20.86
2018-06-02T21:59:07.230Z,20.86
2018-06-02T22:01:35.404Z,20.87
2018-06-02T22:04:03.620Z,20.81
2018-06-02T22:06:31.841Z,20.80
2018-06-02T22:09:00.072Z,20.77
2018-06-02T22:11:28.247Z,20.76
2018-06-02T22:13:56.454Z,20.70
2018-06-02T22:16:24.650Z,20.67
2018-06-02T22:18:52.864Z,20.69
2018-06-02T22:21:21.037Z,20.62
2018-06-02T22:23:49.511Z,20.50
2018-06-02T22:26:17.762Z,20.46
2018-06-02T22:28:45.941Z,20.51
2018-06-02T22:31:14.146Z,20.41
2018-06-02T22:33:42.365Z,20.39
2018-06-02T22:36:10.598Z,20.39
2018-06-02T22:38:38.797Z,20.35
2018-06-02T22:41:06.974Z,20.37
2018-06-02T22:43:35.171Z,20.37
2018-06-02T22:46:03.327Z,20.36
2018-06-02T22:48:31.558Z,20.35
2018-06-02T22:50:59.761Z,20.35
2018-06-02T22:53:27.988Z,20.30
2018-06-02T22:55:56.171Z,20.40
2018-06-02T22:58:24.371Z,20.33
2018-06-02T23:00:52.578Z,20.36
2018-06-02T23:03:20.761Z,20.39
2018-06-02T23:05:48.962Z,20.34
2018-06-02T23:08:17.201Z,20.32
2018-06-02T23:10:45.397Z,20.33
2018-06-02T23:13:13.585Z,20.32
2018-06-02T23:15:41.795Z,20.25
2018-06-02T23:18:09.970Z,20.19
2018-06-02T23:20:38.188Z,20.17
2018-06-02T23:23:06.469Z,20.14
2018-06-02T23:25:34.621Z,20.09
2018-06-02T23:28:02.825Z,20.06
2018-06-02T23:30:31.016Z,20.03
2018-06-02T23:32:59.242Z,20.04
2018-06-02T23:35:27.465Z,20.05
2018-06-02T23:37:55.659Z,19.99
2018-06-02T23:40:23.834Z,19.98
2018-06-02T23:42:52.029Z,19.99
2018-06-02T23:45:20.254Z,20.01
2018-06-02T23:47:48.439Z,20.00
2018-06-02T23:50:16.618Z,19.98
2018-06-02T23:52:44.853Z,20.04
2018-06-02T23:55:13.018Z,19.99
2018-06-02T23:57:41.224Z,19.94
